Time;durP1;ratioP1;P1;durP2;ratioP2;P2;SDS_P1;SDS_P2;PMS_P1;PMS_P2;Temp;Humidity;BMP_temperature;BMP_pressure;BME280_temperature;BME280_humidity;BME280_pressure;Samples;Min_cycle;Max_cycle;Signal;HPM_P1;HPM_P2
2023/08/10 00:00:34;;;;;;;1.00;0.90;;;;;;;13.02;73.79;99273.41;5075272;28;39962;-84
2023/08/10 00:03:01;;;;;;;1.30;1.20;;;;;;;12.93;73.64;99264.25;5058184;28;41783;-83
2023/08/10 00:05:30;;;;;;;0.90;0.90;;;;;;;12.84;73.83;99255.09;5075530;28;43520;-83
2023/08/10 00:07:59;;;;;;;1.50;0.80;;;;;;;12.94;73.92;99271.28;5074931;28;41217;-85
2023/08/10 00:10:27;;;;;;;0.80;0.70;;;;;;;12.91;73.99;99269.66;5056163;28;39541;-83
2023/08/10 00:12:54;;;;;;;1.13;1.03;;;;;;;12.88;74.53;99266.34;5073786;28;40784;-84
2023/08/10 00:15:22;;;;;;;0.73;0.70;;;;;;;12.89;74.25;99266.25;5074097;28;42783;-83
2023/08/10 00:17:50;;;;;;;1.30;1.10;;;;;;;12.87;74.46;99270.81;5074462;28;42252;-83
2023/08/10 00:20:17;;;;;;;1.97;1.03;;;;;;;12.82;74.53;99270.28;5074400;28;40079;-84
2023/08/10 00:22:44;;;;;;;0.70;0.70;;;;;;;12.80;74.14;99271.31;5073620;28;43466;-83
2023/08/10 00:25:14;;;;;;;1.23;0.83;;;;;;;12.81;74.46;99265.91;5073251;28;41798;-84
2023/08/10 00:27:41;;;;;;;0.80;0.80;;;;;;;12.79;74.22;99272.25;5056053;28;41183;-83
2023/08/10 00:30:10;;;;;;;1.10;1.00;;;;;;;12.77;74.51;99271.50;5056274;28;38623;-84
2023/08/10 00:32:37;;;;;;;1.53;0.70;;;;;;;12.74;74.46;99269.03;5056069;28;40709;-82
2023/08/10 00:35:05;;;;;;;1.40;0.50;;;;;;;12.59;74.27;99245.19;5073237;28;42908;-84
2023/08/10 00:37:33;;;;;;;0.97;0.60;;;;;;;12.64;74.42;99262.63;5072788;28;42305;-82
2023/08/10 00:40:00;;;;;;;0.77;0.77;;;;;;;12.55;74.33;99250.78;5073530;28;40926;-83
2023/08/10 00:42:29;;;;;;;0.77;0.77;;;;;;;12.59;74.75;99271.75;5074707;28;42709;-83
2023/08/10 00:44:57;;;;;;;0.67;0.67;;;;;;;12.43;74.60;99244.47;5074000;28;42786;-82
2023/08/10 00:47:25;;;;;;;0.80;0.80;;;;;;;12.53;74.64;99274.78;5074032;28;42629;-83
2023/08/10 00:49:54;;;;;;;1.50;0.97;;;;;;;12.51;74.62;99266.06;5074035;28;40881;-83
2023/08/10 00:52:21;;;;;;;0.80;0.80;;;;;;;12.49;74.64;99270.63;5073090;28;41681;-85
2023/08/10 00:54:49;;;;;;;0.93;0.90;;;;;;;12.46;75.16;99269.97;5073114;28;42739;-84
2023/08/10 00:57:16;;;;;;;1.07;0.97;;;;;;;12.32;75.00;99254.91;5073293;28;42316;-84
2023/08/10 00:59:47;;;;;;;0.90;0.80;;;;;;;12.42;75.04;99279.09;5057007;28;39768;-85
2023/08/10 01:02:15;;;;;;;0.80;0.80;;;;;;;12.40;74.89;99271.22;5072848;28;41749;-84
2023/08/10 01:04:43;;;;;;;0.60;0.60;;;;;;;12.29;75.33;99262.22;5056898;28;41621;-83
2023/08/10 01:07:19;;;;;;;0.97;0.87;;;;;;;12.23;75.42;99258.16;5073518;28;41337;-85
2023/08/10 01:09:53;;;;;;;0.97;0.80;;;;;;;12.37;75.57;99282.03;5055351;28;39127;-83
2023/08/10 01:12:26;;;;;;;1.07;0.87;;;;;;;12.24;75.18;99265.16;5072423;28;40857;-82
2023/08/10 01:15:03;;;;;;;1.20;0.80;;;;;;;12.23;75.49;99263.47;5055812;28;43459;-85
2023/08/10 01:21:54;;;;;;;1.10;1.00;;;;;;;12.26;75.71;99295.13;5072262;28;42648;-82
2023/08/10 01:24:29;;;;;;;1.03;0.80;;;;;;;12.15;75.92;99276.34;5069343;28;42754;-83
2023/08/10 01:26:59;;;;;;;0.80;0.80;;;;;;;12.19;75.82;99284.03;5054988;28;41798;-85
2023/08/10 01:29:27;;;;;;;0.93;0.70;;;;;;;12.14;75.80;99282.59;5072401;28;42558;-85
2023/08/10 01:31:55;;;;;;;0.80;0.60;;;;;;;12.25;76.24;99298.72;5072215;28;41503;-85
2023/08/10 01:34:22;;;;;;;1.10;1.00;;;;;;;12.17;76.53;99279.78;5055632;28;40788;-83
2023/08/10 01:36:50;;;;;;;2.37;1.13;;;;;;;12.25;76.46;99293.41;5072016;28;42400;-84
2023/08/10 01:39:17;;;;;;;1.00;0.90;;;;;;;12.26;76.62;99294.25;5076257;28;42538;-82
2023/08/10 01:41:45;;;;;;;1.27;1.00;;;;;;;12.19;76.87;99288.50;5084619;28;40204;-83
2023/08/10 01:44:14;;;;;;;1.30;1.10;;;;;;;12.25;77.46;99296.06;5061815;28;40903;-82
2023/08/10 01:46:46;;;;;;;1.30;0.97;;;;;;;12.26;77.39;99300.44;5073495;28;43273;-84
2023/08/10 01:49:14;;;;;;;1.47;1.27;;;;;;;12.21;78.32;99300.75;5070172;28;41961;-83
2023/08/10 01:51:44;;;;;;;1.23;1.13;;;;;;;12.18;78.71;99278.81;5072658;28;41225;-83
2023/08/10 01:54:13;;;;;;;1.33;1.23;;;;;;;12.29;80.28;99296.75;5070354;28;42653;-83
2023/08/10 01:56:41;;;;;;;1.27;1.17;;;;;;;12.25;81.47;99293.41;5072780;28;42825;-84
2023/08/10 01:59:09;;;;;;;1.47;1.30;;;;;;;12.16;81.86;99278.06;5073005;28;42373;-82
2023/08/10 02:01:38;;;;;;;1.27;1.17;;;;;;;12.27;81.43;99295.97;5072967;28;39299;-84
2023/08/10 02:04:06;;;;;;;1.90;1.30;;;;;;;12.26;81.15;99295.13;5055981;28;41500;-83
2023/08/10 02:06:38;;;;;;;1.20;1.10;;;;;;;11.91;80.72;99246.00;5055908;28;41675;-84
2023/08/10 02:09:06;;;;;;;1.10;1.00;;;;;;;12.24;80.21;99303.19;5055270;28;44414;-85
2023/08/10 02:11:33;;;;;;;1.47;1.00;;;;;;;12.23;79.83;99301.50;5053957;28;38980;-84
2023/08/10 02:14:01;;;;;;;2.60;0.97;;;;;;;12.20;79.84;99301.69;5071456;28;41669;-84
2023/08/10 02:16:29;;;;;;;1.07;0.83;;;;;;;12.19;79.44;99305.28;5054672;28;42795;-84
2023/08/10 02:18:58;;;;;;;1.20;0.90;;;;;;;12.16;79.28;99301.97;5072901;28;42925;-84
2023/08/10 02:21:26;;;;;;;1.20;0.90;;;;;;;12.15;79.30;99302.91;5054755;28;38905;-83
2023/08/10 02:23:54;;;;;;;1.10;0.90;;;;;;;12.13;79.15;99299.47;5071596;28;41802;-83
2023/08/10 02:26:21;;;;;;;2.43;1.10;;;;;;;11.99;79.05;99276.44;5054486;28;43015;-84
2023/08/10 02:28:50;;;;;;;1.30;1.00;;;;;;;12.09;79.23;99303.28;5054429;28;41435;-83
2023/08/10 02:31:18;;;;;;;1.43;0.90;;;;;;;12.07;78.87;99300.72;5054759;28;40954;-86
2023/08/10 02:33:45;;;;;;;1.67;1.00;;;;;;;11.98;79.24;99284.53;5071749;28;42539;-84
2023/08/10 02:36:14;;;;;;;1.13;1.00;;;;;;;12.04;78.87;99300.91;5071247;28;42626;-85
2023/08/10 02:38:42;;;;;;;0.80;0.80;;;;;;;11.87;78.91;99278.03;5070927;28;42325;-83
2023/08/10 02:41:09;;;;;;;1.30;1.00;;;;;;;11.92;78.94;99291.03;5072799;28;41108;-85
2023/08/10 02:43:37;;;;;;;0.93;0.80;;;;;;;11.59;78.82;99230.25;5073009;28;41422;-85
2023/08/10 02:46:04;;;;;;;1.47;1.00;;;;;;;11.88;78.89;99282.41;5072156;28;41889;-83
2023/08/10 02:48:32;;;;;;;1.07;0.93;;;;;;;11.96;78.84;99302.34;5055032;28;41198;-83
2023/08/10 02:50:59;;;;;;;1.10;1.00;;;;;;;11.95;78.88;99301.47;5072403;28;39854;-83
2023/08/10 02:53:28;;;;;;;0.80;0.80;;;;;;;11.85;78.74;99293.22;5071527;28;42426;-84
2023/08/10 02:55:56;;;;;;;1.00;0.90;;;;;;;11.92;78.70;99306.13;5054893;28;41797;-83
2023/08/10 02:58:23;;;;;;;1.10;0.90;;;;;;;11.81;78.79;99291.69;5071688;28;42453;-84
2023/08/10 03:00:51;;;;;;;1.23;0.90;;;;;;;11.78;78.66;99291.88;5055431;28;39261;-83
2023/08/10 03:03:19;;;;;;;0.90;0.90;;;;;;;11.76;78.60;99296.41;5054529;28;40667;-85
2023/08/10 03:05:46;;;;;;;1.10;1.00;;;;;;;11.85;78.79;99316.25;5070205;28;43450;-86
2023/08/10 03:08:14;;;;;;;1.07;1.07;;;;;;;11.80;78.73;99316.53;5053302;28;41225;-83
2023/08/10 03:10:42;;;;;;;0.97;0.70;;;;;;;11.78;78.72;99315.75;5070915;28;40068;-85
2023/08/10 03:13:10;;;;;;;0.93;0.87;;;;;;;11.78;79.00;99321.06;5053746;28;41286;-84
2023/08/10 03:15:37;;;;;;;2.03;1.20;;;;;;;11.77;79.73;99314.06;5070823;28;42748;-86
2023/08/10 03:18:05;;;;;;;1.77;1.07;;;;;;;11.68;80.54;99298.66;5052991;28;41113;-82
2023/08/10 03:20:33;;;;;;;1.30;1.20;;;;;;;11.79;81.89;99311.31;5054463;28;39895;-85
2023/08/10 03:23:00;;;;;;;1.50;1.17;;;;;;;11.74;82.88;99308.06;5070428;28;41779;-82
2023/08/10 03:25:28;;;;;;;1.53;1.10;;;;;;;11.76;83.35;99307.03;5070435;28;42623;-83
2023/08/10 03:27:58;;;;;;;1.93;1.70;;;;;;;11.79;83.04;99314.81;5053561;28;42229;-84
2023/08/10 03:30:26;;;;;;;1.30;1.20;;;;;;;11.80;82.68;99313.88;5053614;28;41699;-83
2023/08/10 03:32:53;;;;;;;1.20;1.10;;;;;;;11.79;82.31;99317.47;5071041;28;42300;-83
2023/08/10 03:35:21;;;;;;;1.50;1.13;;;;;;;11.73;81.56;99317.81;5070679;28;42722;-83
2023/08/10 03:37:49;;;;;;;1.37;1.20;;;;;;;11.79;81.44;99324.56;5071332;28;42347;-85
2023/08/10 03:40:16;;;;;;;1.37;1.10;;;;;;;11.69;81.24;99310.13;5054062;28;39939;-84
2023/08/10 03:42:44;;;;;;;1.50;0.97;;;;;;;11.66;80.96;99311.16;5071286;28;42054;-82
2023/08/10 03:45:13;;;;;;;1.07;0.80;;;;;;;11.71;80.97;99326.81;5071331;28;42948;-82
2023/08/10 03:47:40;;;;;;;0.70;0.70;;;;;;;11.60;80.89;99316.84;5071193;28;42495;-84
2023/08/10 03:50:10;;;;;;;1.23;1.00;;;;;;;11.55;80.45;99318.03;5071439;28;40694;-84
2023/08/10 03:52:37;;;;;;;0.70;0.70;;;;;;;11.55;80.37;99318.03;5070748;28;41680;-85
2023/08/10 03:55:06;;;;;;;0.90;0.70;;;;;;;11.57;80.55;99332.94;5071586;28;42880;-83
2023/08/10 03:57:33;;;;;;;0.83;0.80;;;;;;;11.53;80.09;99344.66;5053743;28;43586;-82
2023/08/10 04:00:03;;;;;;;0.70;0.70;;;;;;;11.48;80.34;99325.53;5071412;28;40157;-83
2023/08/10 04:02:33;;;;;;;1.67;0.90;;;;;;;11.53;79.99;99334.91;5053678;28;42388;-84
2023/08/10 04:05:05;;;;;;;0.77;0.70;;;;;;;11.58;79.96;99342.59;5054012;28;41889;-82
2023/08/10 04:07:33;;;;;;;1.13;0.90;;;;;;;11.63;79.70;99348.47;5053837;28;41094;-81
2023/08/10 04:10:01;;;;;;;0.73;0.73;;;;;;;11.71;79.88;99340.06;5070301;28;40154;-83
2023/08/10 04:12:29;;;;;;;1.10;1.00;;;;;;;11.70;79.70;99333.06;5052537;28;41743;-84
2023/08/10 04:14:56;;;;;;;1.50;1.40;;;;;;;11.86;80.75;99334.75;5069600;28;42024;-84
2023/08/10 04:17:23;;;;;;;2.07;1.30;;;;;;;11.82;80.51;99329.72;5052342;28;41370;-82
2023/08/10 04:19:53;;;;;;;1.70;1.20;;;;;;;11.71;80.49;99290.53;5052848;28;40240;-84
2023/08/10 04:22:20;;;;;;;1.63;1.50;;;;;;;12.10;80.35;99336.88;5052610;28;41103;-83
2023/08/10 04:24:48;;;;;;;1.67;1.10;;;;;;;12.15;80.09;99342.72;5052544;28;44201;-83
2023/08/10 04:27:16;;;;;;;1.50;1.40;;;;;;;12.22;80.30;99344.06;5069050;28;43472;-84
2023/08/10 04:29:45;;;;;;;2.23;1.50;;;;;;;12.24;80.21;99344.81;5070009;28;39260;-83
2023/08/10 04:32:12;;;;;;;1.87;1.50;;;;;;;12.28;81.57;99341.03;5072586;28;42045;-82
2023/08/10 04:34:41;;;;;;;2.10;1.83;;;;;;;12.39;81.33;99349.19;5072958;28;43849;-82
2023/08/10 04:37:10;;;;;;;2.23;2.03;;;;;;;12.44;81.53;99352.41;5072038;28;44350;-82
2023/08/10 04:39:37;;;;;;;2.33;1.73;;;;;;;12.47;81.52;99346.94;5072993;28;40127;-82
2023/08/10 04:42:05;;;;;;;1.73;1.63;;;;;;;12.42;81.97;99335.72;5056237;28;40975;-82
2023/08/10 04:44:33;;;;;;;1.93;1.40;;;;;;;12.52;82.63;99347.47;5073845;28;43692;-84
2023/08/10 04:47:00;;;;;;;2.83;1.73;;;;;;;12.42;82.38;99322.44;5073414;28;41152;-83
2023/08/10 04:49:28;;;;;;;2.50;1.80;;;;;;;12.56;82.48;99351.66;5073681;28;40157;-82
2023/08/10 04:51:56;;;;;;;2.00;1.40;;;;;;;12.61;82.37;99358.50;5072825;28;40538;-82
2023/08/10 04:54:25;;;;;;;1.90;1.60;;;;;;;12.65;82.57;99354.66;5039912;28;42744;-83
2023/08/10 04:56:52;;;;;;;1.63;1.50;;;;;;;12.63;82.44;99345.94;5072870;28;41349;-83
2023/08/10 04:59:20;;;;;;;1.53;1.03;;;;;;;12.75;82.38;99342.50;5073484;28;39853;-84
2023/08/10 05:01:48;;;;;;;2.10;1.80;;;;;;;12.92;82.62;99363.56;5073323;28;41808;-83
2023/08/10 05:04:15;;;;;;;2.60;1.77;;;;;;;12.92;82.35;99352.94;5065536;28;43900;-82
2023/08/10 05:06:43;;;;;;;2.30;1.97;;;;;;;13.05;82.16;99351.19;5068143;28;42592;-82
2023/08/10 05:09:10;;;;;;;1.70;1.60;;;;;;;12.93;82.02;99320.06;5074548;28;42516;-82
2023/08/10 05:11:39;;;;;;;2.30;1.60;;;;;;;13.34;81.81;99375.06;5071544;28;41857;-84
2023/08/10 05:14:07;;;;;;;2.47;1.70;;;;;;;13.42;81.52;99376.28;5072233;28;42915;-82
2023/08/10 05:16:34;;;;;;;2.93;2.00;;;;;;;13.53;81.40;99381.75;5055164;28;43219;-84
2023/08/10 05:19:02;;;;;;;2.20;1.70;;;;;;;13.62;81.40;99382.91;5072044;28;39874;-84
2023/08/10 05:21:29;;;;;;;2.73;2.07;;;;;;;13.69;80.91;99373.59;5055075;28;40813;-83
2023/08/10 05:23:57;;;;;;;2.53;1.80;;;;;;;13.85;80.88;99378.72;5055216;28;42632;-86
2023/08/10 05:26:24;;;;;;;3.47;2.20;;;;;;;13.97;81.16;99386.72;5071889;28;44672;-86
2023/08/10 05:28:54;;;;;;;3.97;2.27;;;;;;;14.11;80.94;99387.59;5072595;28;40334;-85
2023/08/10 05:31:21;;;;;;;4.00;2.47;;;;;;;14.13;80.89;99375.03;5071819;28;41483;-84
2023/08/10 05:33:48;;;;;;;2.77;2.30;;;;;;;14.32;81.13;99391.47;5072475;28;42963;-84
2023/08/10 05:36:16;;;;;;;3.70;2.50;;;;;;;14.40;80.90;99378.50;5071918;28;44056;-84
2023/08/10 05:38:43;;;;;;;3.87;2.67;;;;;;;14.54;80.46;99383.72;5071802;28;39759;-84
2023/08/10 05:41:11;;;;;;;3.90;2.80;;;;;;;14.78;79.98;99396.25;5055164;28;41668;-83
2023/08/10 05:43:38;;;;;;;4.07;2.20;;;;;;;14.98;79.70;99395.69;5072185;28;42885;-85
2023/08/10 05:46:07;;;;;;;3.10;2.40;;;;;;;15.22;79.35;99393.91;5055885;28;41381;-85
2023/08/10 05:48:35;;;;;;;3.17;2.40;;;;;;;15.53;79.00;99399.66;5056046;28;40674;-85
2023/08/10 05:51:03;;;;;;;3.93;2.93;;;;;;;15.80;78.89;99398.50;5055581;28;40288;-82
2023/08/10 05:53:31;;;;;;;4.87;3.00;;;;;;;16.03;78.35;99380.72;5071988;28;41857;-83
2023/08/10 05:55:59;;;;;;;3.70;2.53;;;;;;;16.24;77.31;99382.69;5072351;28;42565;-90
2023/08/10 05:58:26;;;;;;;4.27;2.97;;;;;;;16.37;77.10;99388.81;5072476;28;40185;-90
2023/08/10 06:00:54;;;;;;;3.70;2.40;;;;;;;16.29;76.86;99375.19;5056965;28;40660;-89
2023/08/10 06:03:23;;;;;;;4.63;3.13;;;;;;;16.38;76.83;99393.19;5056811;28;41417;-89
2023/08/10 06:05:50;;;;;;;3.23;2.23;;;;;;;16.50;76.62;99411.78;5072871;28;42271;-89
2023/08/10 06:08:18;;;;;;;4.80;3.13;;;;;;;16.48;76.36;99399.50;5055341;28;39172;-91
2023/08/10 06:10:49;;;;;;;4.70;2.73;;;;;;;16.54;76.12;99407.06;5053594;28;43719;-90
2023/08/10 06:13:18;;;;;;;3.20;2.77;;;;;;;16.71;76.29;99419.97;5054372;28;42592;-90
2023/08/10 06:15:47;;;;;;;3.40;2.40;;;;;;;16.59;75.97;99394.16;5054402;28;41971;-88
2023/08/10 06:18:14;;;;;;;3.57;2.73;;;;;;;16.78;76.10;99423.03;5054132;28;39242;-90
2023/08/10 06:20:44;;;;;;;3.37;2.90;;;;;;;16.73;75.95;99402.00;5054295;28;42456;-89
2023/08/10 06:23:12;;;;;;;3.33;2.53;;;;;;;16.90;75.94;99419.38;5054008;28;41623;-90
2023/08/10 06:25:40;;;;;;;3.90;3.37;;;;;;;17.08;75.49;99427.75;5053778;28;41922;-90
2023/08/10 06:28:08;;;;;;;4.63;2.93;;;;;;;17.27;74.83;99408.41;5037630;28;39245;-90
2023/08/10 06:30:36;;;;;;;3.37;2.90;;;;;;;17.59;73.91;99423.53;5054423;28;41522;-90
2023/08/10 06:33:05;;;;;;;5.20;3.37;;;;;;;17.65;74.17;99410.66;5054143;28;42135;-90
2023/08/10 06:35:35;;;;;;;3.17;2.40;;;;;;;17.74;74.08;99409.88;5054288;28;42550;-91
2023/08/10 06:38:05;;;;;;;3.23;2.43;;;;;;;17.87;73.88;99422.13;5070853;28;39044;-90
2023/08/10 06:40:32;;;;;;;4.37;3.13;;;;;;;17.95;73.13;99402.72;5054947;28;41752;-90
2023/08/10 06:43:00;;;;;;;4.00;2.67;;;;;;;18.14;71.69;99407.38;5054859;28;41903;-90
2023/08/10 06:45:38;;;;;;;6.33;3.03;;;;;;;17.91;70.37;99386.06;5055372;28;42236;-89
2023/08/10 06:48:06;;;;;;;3.57;2.87;;;;;;;18.12;71.08;99422.75;5054824;28;40090;-90
2023/08/10 06:50:34;;;;;;;2.90;2.37;;;;;;;17.90;71.69;99389.72;5055135;28;40951;-90
2023/08/10 06:53:04;;;;;;;4.73;2.57;;;;;;;17.82;71.97;99375.25;5053634;28;42258;-89
2023/08/10 06:55:38;;;;;;;3.10;2.80;;;;;;;18.04;71.73;99393.06;5054915;28;41288;-90
2023/08/10 06:58:06;;;;;;;4.13;2.57;;;;;;;18.55;71.37;99439.53;5071419;28;40357;-90
2023/08/10 07:00:33;;;;;;;3.73;2.23;;;;;;;18.78;71.25;99440.28;5071751;28;41740;-89
2023/08/10 07:03:01;;;;;;;2.80;2.00;;;;;;;18.91;71.13;99423.97;5071709;28;42212;-90
2023/08/10 07:05:29;;;;;;;4.53;2.60;;;;;;;19.01;68.87;99414.97;5054976;28;41827;-90
2023/08/10 07:07:57;;;;;;;2.50;2.13;;;;;;;19.13;69.20;99394.22;5054585;28;39245;-90
2023/08/10 07:10:26;;;;;;;1.87;1.53;;;;;;;19.67;69.00;99449.38;5069703;28;42827;-90
2023/08/10 07:12:54;;;;;;;2.03;1.83;;;;;;;19.85;67.59;99434.25;5053380;28;41888;-89
2023/08/10 07:15:21;;;;;;;2.70;2.20;;;;;;;20.22;67.22;99434.41;5053913;28;41078;-91
2023/08/10 07:17:48;;;;;;;2.30;2.10;;;;;;;20.41;66.90;99445.16;5053537;28;38471;-90
2023/08/10 07:20:18;;;;;;;2.60;1.90;;;;;;;20.56;65.64;99415.13;5053808;28;40927;-90
2023/08/10 07:22:47;;;;;;;4.23;2.20;;;;;;;20.83;64.03;99439.41;5053739;28;41649;-90
2023/08/10 07:25:16;;;;;;;2.60;2.33;;;;;;;20.92;63.79;99437.66;5054152;28;42091;-91
2023/08/10 07:27:46;;;;;;;2.10;1.77;;;;;;;21.13;63.65;99447.25;5053465;28;40912;-90
2023/08/10 07:30:15;;;;;;;1.60;1.47;;;;;;;21.24;63.29;99437.31;5053972;28;42937;-90
2023/08/10 07:32:43;;;;;;;3.27;1.67;;;;;;;21.53;62.90;99454.16;5053245;28;41857;-89
2023/08/10 07:35:11;;;;;;;2.57;2.37;;;;;;;21.75;61.47;99451.06;5069866;28;42136;-91
2023/08/10 07:37:40;;;;;;;3.40;1.97;;;;;;;21.90;61.69;99440.56;5070008;28;41294;-89
2023/08/10 07:40:11;;;;;;;2.37;1.90;;;;;;;22.06;61.12;99446.16;5053766;28;42035;-89
2023/08/10 07:42:38;;;;;;;3.40;1.87;;;;;;;21.96;61.31;99439.97;5054108;28;41774;-89
2023/08/10 07:45:09;;;;;;;2.97;1.90;;;;;;;21.96;61.38;99439.09;5071350;28;42372;-89
2023/08/10 07:47:37;;;;;;;2.97;2.07;;;;;;;21.99;61.61;99437.00;5071100;28;39397;-89
2023/08/10 07:50:06;;;;;;;2.63;1.97;;;;;;;21.97;61.46;99419.22;5071430;28;42029;-90
2023/08/10 07:52:33;;;;;;;4.03;2.20;;;;;;;22.24;61.39;99448.84;5053343;28;41988;-90
2023/08/10 07:55:01;;;;;;;3.47;2.13;;;;;;;22.38;61.19;99440.16;5052684;28;41437;-89
2023/08/10 07:57:31;;;;;;;3.70;2.10;;;;;;;22.71;59.95;99459.34;5052801;28;39159;-89
2023/08/10 08:00:04;;;;;;;2.53;1.97;;;;;;;23.00;58.89;99459.88;5069683;28;41769;-89
2023/08/10 08:02:41;;;;;;;4.23;2.47;;;;;;;23.27;57.21;99464.22;5069642;28;41766;-88
2023/08/10 08:05:09;;;;;;;2.40;1.70;;;;;;;23.58;56.35;99488.91;5055784;28;41256;-90
2023/08/10 08:07:37;;;;;;;3.37;1.90;;;;;;;23.79;54.69;99470.38;5056347;28;38819;-89
2023/08/10 08:10:05;;;;;;;2.87;1.63;;;;;;;24.08;55.25;99469.94;5056549;28;41671;-89
2023/08/10 08:12:33;;;;;;;1.87;1.60;;;;;;;24.26;53.80;99472.50;5072549;28;42028;-89
2023/08/10 08:15:03;;;;;;;1.77;1.20;;;;;;;24.32;53.38;99485.38;5056616;28;41039;-90
2023/08/10 08:18:18;;;;;;;2.13;1.53;;;;;;;24.51;52.97;99493.16;5073073;28;40197;-88
2023/08/10 08:20:47;;;;;;;1.43;1.20;;;;;;;24.51;52.72;99482.34;5012773;28;40455;-88
2023/08/10 08:23:15;;;;;;;2.63;1.37;;;;;;;24.64;52.33;99473.69;5065345;28;42061;-90
2023/08/10 08:25:42;;;;;;;2.10;1.40;;;;;;;24.89;52.52;99466.38;5061621;28;42841;-89
2023/08/10 08:28:10;;;;;;;1.33;1.10;;;;;;;25.35;50.94;99491.88;5057366;28;41100;-90
2023/08/10 08:30:37;;;;;;;1.30;1.20;;;;;;;25.74;49.65;99497.34;5057295;28;41827;-88
2023/08/10 08:33:05;;;;;;;1.90;1.20;;;;;;;26.28;48.29;99484.66;5056774;28;41988;-90
2023/08/10 08:35:36;;;;;;;2.50;1.50;;;;;;;27.45;46.55;99500.34;5056922;28;41526;-89
2023/08/10 08:38:16;;;;;;;2.30;1.13;;;;;;;28.90;43.86;99495.75;5056011;28;39735;-91
2023/08/10 08:40:44;;;;;;;1.47;1.30;;;;;;;29.77;42.00;99487.06;5056457;28;42938;-90
2023/08/10 08:43:21;;;;;;;2.20;1.40;;;;;;;30.57;41.09;99472.56;5056866;28;42091;-88
2023/08/10 08:45:49;;;;;;;2.00;1.30;;;;;;;30.99;40.17;99517.81;5057628;28;41255;-88
2023/08/10 08:48:18;;;;;;;1.40;1.07;;;;;;;30.57;39.49;99513.56;5056995;28;38711;-88
2023/08/10 08:50:49;;;;;;;1.43;1.03;;;;;;;30.07;40.42;99504.81;5056867;28;41145;-88
2023/08/10 08:53:18;;;;;;;1.60;1.10;;;;;;;29.73;41.90;99485.75;5056729;28;42425;-87
2023/08/10 08:55:47;;;;;;;0.97;0.97;;;;;;;29.69;41.48;99495.41;5056915;28;41379;-90
2023/08/10 08:58:16;;;;;;;0.80;0.80;;;;;;;29.78;41.58;99497.78;5056732;28;38965;-89
2023/08/10 09:00:48;;;;;;;0.90;0.90;;;;;;;29.94;40.96;99502.00;5056898;28;42035;-90
2023/08/10 09:03:19;;;;;;;1.00;0.90;;;;;;;30.24;38.42;99484.28;5057083;28;44609;-93
2023/08/10 09:05:51;;;;;;;3.53;1.33;;;;;;;31.25;34.64;99527.91;5056980;28;41241;-87
2023/08/10 09:08:21;;;;;;;1.70;1.00;;;;;;;32.67;35.43;99522.28;5056267;28;39225;-87
2023/08/10 09:10:49;;;;;;;1.20;1.10;;;;;;;34.23;31.50;99531.06;5054576;28;40738;-89
2023/08/10 09:13:24;;;;;;;1.33;0.80;;;;;;;35.00;30.46;99506.41;5054868;28;42559;-88
2023/08/10 09:16:09;;;;;;;0.77;0.73;;;;;;;34.95;30.84;99523.66;5054623;28;42236;-88
2023/08/10 09:18:41;;;;;;;1.20;1.10;;;;;;;35.31;30.41;99528.16;5055349;28;40296;-88
2023/08/10 09:21:14;;;;;;;1.23;0.80;;;;;;;36.85;27.74;99544.84;5055542;28;41605;-88
2023/08/10 09:23:45;;;;;;;0.82;0.82;;;;;;;38.53;26.03;99557.25;5055369;28;42774;-87
2023/08/10 09:26:16;;;;;;;0.90;0.70;;;;;;;39.95;25.18;99541.72;5055446;28;41381;-88
2023/08/10 09:28:44;;;;;;;0.70;0.70;;;;;;;41.11;23.14;99551.44;5055390;28;39504;-88
2023/08/10 09:31:12;;;;;;;2.20;0.70;;;;;;;41.44;23.08;99545.31;5055079;28;40454;-88
2023/08/10 09:33:40;;;;;;;0.98;0.80;;;;;;;41.08;23.13;99526.97;5055382;28;41804;-88
2023/08/10 09:36:10;;;;;;;0.63;0.60;;;;;;;40.61;23.49;99532.78;5054994;28;40943;-87
2023/08/10 09:38:37;;;;;;;0.63;0.60;;;;;;;39.88;22.85;99523.69;5054863;28;38620;-87
2023/08/10 09:41:23;;;;;;;0.77;0.68;;;;;;;38.98;22.94;99529.16;5055487;28;40137;-86
2023/08/10 09:43:51;;;;;;;3.40;0.90;;;;;;;38.21;26.26;99509.25;5056180;28;43344;-88
2023/08/10 09:46:19;;;;;;;0.70;0.70;;;;;;;37.59;26.51;99517.84;5072886;28;42693;-88
2023/08/10 09:48:49;;;;;;;1.63;0.90;;;;;;;36.84;25.60;99505.38;5056296;28;40483;-88
2023/08/10 09:51:16;;;;;;;1.05;0.98;;;;;;;36.26;25.58;99502.91;5073153;28;42720;-86
2023/08/10 09:53:44;;;;;;;1.00;1.00;;;;;;;36.26;25.03;99503.75;5056175;28;41819;-88
2023/08/10 09:56:13;;;;;;;1.02;0.90;;;;;;;36.42;24.10;99517.84;5074784;28;41048;-89
2023/08/10 09:58:42;;;;;;;1.15;1.05;;;;;;;36.05;24.43;99522.88;5056591;28;40279;-88
2023/08/10 10:01:10;;;;;;;0.93;0.70;;;;;;;35.15;24.91;99513.13;5056463;28;42259;-89
2023/08/10 10:03:38;;;;;;;1.27;1.00;;;;;;;34.45;25.73;99507.50;5055643;28;43240;-89
2023/08/10 10:06:05;;;;;;;1.60;1.00;;;;;;;34.53;26.92;99504.41;5055470;28;41629;-85
2023/08/10 10:08:39;;;;;;;0.80;0.80;;;;;;;34.93;25.62;99504.63;5055063;28;40116;-88
2023/08/10 10:11:15;;;;;;;0.90;0.90;;;;;;;34.84;25.64;99503.31;5051521;28;42972;-89
2023/08/10 10:13:43;;;;;;;0.93;0.93;;;;;;;34.30;26.63;99498.84;5054455;28;43098;-89
2023/08/10 10:16:17;;;;;;;1.60;1.17;;;;;;;33.61;27.43;99485.53;5054712;28;40950;-89
2023/08/10 10:18:45;;;;;;;1.03;0.90;;;;;;;33.07;27.86;99466.03;5055222;28;39017;-90
2023/08/10 10:21:12;;;;;;;1.33;0.80;;;;;;;32.61;27.50;99488.38;5054431;28;41461;-88
2023/08/10 10:23:49;;;;;;;1.00;1.00;;;;;;;31.71;29.01;99473.91;5054692;28;41799;-89
2023/08/10 10:26:20;;;;;;;0.93;0.83;;;;;;;31.22;29.71;99459.91;5055769;28;41930;-88
2023/08/10 10:29:11;;;;;;;1.93;0.83;;;;;;;31.13;30.29;99448.38;5054639;28;39070;-88
2023/08/10 10:31:39;;;;;;;0.90;0.87;;;;;;;31.07;31.27;99441.81;5054272;28;42092;-89
2023/08/10 10:34:07;;;;;;;1.20;1.10;;;;;;;30.84;31.37;99441.44;5054188;28;43002;-88
2023/08/10 10:36:34;;;;;;;1.57;0.90;;;;;;;30.52;32.13;99434.06;5071157;28;43171;-88
2023/08/10 10:39:07;;;;;;;0.80;0.80;;;;;;;30.25;32.26;99398.53;5070734;28;39407;-89
2023/08/10 10:41:36;;;;;;;1.00;1.00;;;;;;;30.06;32.07;99421.19;5054743;28;41018;-87
2023/08/10 10:44:05;;;;;;;0.80;0.80;;;;;;;29.98;31.59;99443.25;5055277;28;41838;-89
2023/08/10 10:46:37;;;;;;;0.97;0.83;;;;;;;30.36;31.99;99425.22;5055481;28;43176;-89
2023/08/10 10:49:09;;;;;;;1.20;1.10;;;;;;;30.99;30.42;99442.03;5055594;28;38589;-89
2023/08/10 10:51:52;;;;;;;1.00;1.00;;;;;;;31.56;31.06;99428.63;5054459;28;42371;-88
2023/08/10 10:54:20;;;;;;;1.17;1.07;;;;;;;30.95;30.81;99407.94;5055257;28;42688;-88
2023/08/10 10:56:50;;;;;;;1.20;1.10;;;;;;;30.49;30.51;99429.00;5055544;28;20321;-90
2023/08/10 10:59:20;;;;;;;1.03;0.90;;;;;;;30.30;31.93;99401.44;5055327;28;39567;-88
2023/08/10 11:01:48;;;;;;;1.00;0.87;;;;;;;31.00;32.42;99408.16;5054707;28;42618;-90
2023/08/10 11:04:15;;;;;;;1.83;1.00;;;;;;;31.81;29.06;99450.66;5053379;28;42960;-90
2023/08/10 11:06:43;;;;;;;1.00;1.00;;;;;;;32.33;29.70;99430.34;5053606;28;41246;-89
2023/08/10 11:09:13;;;;;;;1.17;1.07;;;;;;;32.81;27.89;99452.56;5054109;28;39264;-90
2023/08/10 11:11:40;;;;;;;0.90;0.90;;;;;;;32.80;27.09;99438.00;5053350;28;41283;-89
2023/08/10 11:14:11;;;;;;;1.10;1.10;;;;;;;33.04;29.71;99406.09;5053483;28;44573;-89
2023/08/10 11:16:42;;;;;;;1.23;1.13;;;;;;;33.73;29.19;99421.34;5053433;28;41238;-88
2023/08/10 11:19:13;;;;;;;0.87;0.87;;;;;;;34.69;27.26;99447.84;5067480;28;39893;-93
2023/08/10 11:21:43;;;;;;;1.70;1.23;;;;;;;36.03;26.37;99436.78;5053516;28;40829;-89
2023/08/10 11:24:12;;;;;;;1.23;1.13;;;;;;;36.95;24.50;99457.50;5053647;28;42751;-88
2023/08/10 11:26:40;;;;;;;1.13;1.10;;;;;;;37.83;22.97;99461.25;5053014;28;41405;-87
2023/08/10 11:29:10;;;;;;;1.48;1.17;;;;;;;38.19;24.04;99445.91;5070176;28;40008;-88
2023/08/10 11:31:39;;;;;;;1.23;1.13;;;;;;;37.17;24.46;99456.75;5069932;28;41938;-86
2023/08/10 11:34:21;;;;;;;1.15;0.98;;;;;;;36.97;24.58;99448.94;5052923;28;42497;-88
2023/08/10 11:36:48;;;;;;;1.20;0.95;;;;;;;37.18;24.40;99450.97;5053170;28;42195;-88
2023/08/10 11:39:16;;;;;;;0.93;0.80;;;;;;;36.69;25.00;99444.34;5060865;28;39652;-87
2023/08/10 11:41:45;;;;;;;1.13;0.80;;;;;;;35.83;23.81;99442.78;5062371;28;40825;-87
2023/08/10 11:44:24;;;;;;;0.82;0.82;;;;;;;35.58;24.80;99443.06;5058045;28;42193;-87
2023/08/10 11:46:52;;;;;;;1.10;1.00;;;;;;;35.71;26.16;99406.09;5058471;28;42256;-88